Tennessee Colony, TX (75861)

8:26 PM CDT on April 25, 2017 (GMT -0500)
Hadley | | Change Station
Active Advisory: Wind Advisory

Elev 370 ft 31.83 °N, 95.85 °W | Updated 22 minutes ago

Overcast
Overcast
79.7 °F
Feels Like 82 °F
N
14.0
Wind Variable Wind from South

Today
High -- | Low -- °F
--% Chance of Precip.
Yesterday
High -- | Low -- °F
Precip. -- in
Pressure 29.53 in
Visibility 10.0 miles
Clouds Overcast 3500 ft
Heat Index 82 °F
Dew Point 69 °F
Humidity 69%
Rainfall 0.00 in
Snow Depth Not available.
6:43 AM 7:59 PM
Waning Crescent, 0% visible
METAR KPSN 260115Z AUTO 17007KT 10SM OVC035 26/20 A2953 RMK AO2 T02640202
Pressure 29.53 in
Visibility 10.0 miles
Clouds Overcast 3500 ft
Heat Index 82 °F
Dew Point 69 °F
Humidity 69%
Rainfall 0.00 in
Snow Depth Not available.
6:43 AM 7:59 PM
Waning Crescent, 0% visible
METAR KPSN 260115Z AUTO 17007KT 10SM OVC035 26/20 A2953 RMK AO2 T02640202

Get Your Daily Forecast Email!

Thanks for signing up!

Be on the lookout for a verification email in your inbox.

You'll start receiving severe weather alerts in your inbox..

×

10-Day Weather Forecast

Almanac

Astronomy

Apr. 25, 2017 Rise Set
Actual Time
Civil Twilight
Nautical Twilight
Astronomical Twilight
Moon
Length of Visible Light
Length of Day
Tomorrow will be .
, % of the Moon is Illuminated

Today's Extremes

State Highs State Lows

Community

WunderPhotos

WunderBlog® & News

Nearby

Air Quality

  Air Quality AQ Index Pollutant
Not available.

Snow Depth

Station Depth Elevation

Earthquake Activity

City Distance Mag. Time & Date
Minimum magnitude displayed is 2.5.

Coastal Water Temperatures

Place Temperature

Stations

Nearby Weather Stations

Station Location Temp. Windchill Dew Point Humidity Wind Precip. Elev Updated Type
                   

Watches & Warnings

Wind Advisory
Issued: 5:30 PM CDT Apr. 25, 2017 – National Weather Service

... Wind Advisory remains in effect until midnight CDT tonight...

* timing... now through midnight.


* Winds... sustained 20 to 25 mph with some gusts over 30 mph.

* Impacts... lightweight objects such as trash cans and patio
furniture will be easily blown about by the wind.

* Driving... high profile vehicles will be subjected to difficult
driving conditions, especially while driving east-west, due to
crosswind conditions.

Precautionary/preparedness actions...

A Wind Advisory means that sustained winds of at least 20 to
30 mph are expected. Winds this strong can make driving
difficult... especially for high profile vehicles. Boaters should
use extra caution when venturing onto area lakes. Residents may
wish to take action to secure trash cans... lawn furniture... and
other lightweight outdoor objects that may be blown around in the
strong winds.